sensor_id;sensor_type;location;lat;lon;timestamp;P1;durP1;ratioP1;P2;durP2;ratioP2
53261;SDS011;39658;51.090;-1.786;2023-07-20T00:01:31;4.30;;;2.08;;
53261;SDS011;39658;51.090;-1.786;2023-07-20T00:03:58;5.22;;;2.03;;
53261;SDS011;39658;51.090;-1.786;2023-07-20T00:06:25;4.57;;;1.88;;
53261;SDS011;39658;51.090;-1.786;2023-07-20T00:08:52;4.43;;;1.92;;
53261;SDS011;39658;51.090;-1.786;2023-07-20T00:11:21;6.63;;;1.88;;
53261;SDS011;39658;51.090;-1.786;2023-07-20T00:13:48;5.57;;;2.40;;
53261;SDS011;39658;51.090;-1.786;2023-07-20T00:16:14;8.25;;;2.30;;
53261;SDS011;39658;51.090;-1.786;2023-07-20T00:18:41;7.43;;;2.10;;
53261;SDS011;39658;51.090;-1.786;2023-07-20T00:21:08;5.35;;;2.15;;
53261;SDS011;39658;51.090;-1.786;2023-07-20T00:23:35;5.13;;;1.98;;
53261;SDS011;39658;51.090;-1.786;2023-07-20T00:26:01;3.85;;;1.85;;
53261;SDS011;39658;51.090;-1.786;2023-07-20T00:28:30;4.70;;;1.98;;
53261;SDS011;39658;51.090;-1.786;2023-07-20T00:30:56;5.93;;;2.45;;
53261;SDS011;39658;51.090;-1.786;2023-07-20T00:33:25;4.97;;;2.15;;
53261;SDS011;39658;51.090;-1.786;2023-07-20T00:35:52;5.28;;;2.17;;
53261;SDS011;39658;51.090;-1.786;2023-07-20T00:38:19;7.55;;;2.45;;
53261;SDS011;39658;51.090;-1.786;2023-07-20T00:40:45;5.10;;;1.75;;
53261;SDS011;39658;51.090;-1.786;2023-07-20T00:43:13;5.63;;;2.00;;
53261;SDS011;39658;51.090;-1.786;2023-07-20T00:45:41;7.13;;;2.10;;
53261;SDS011;39658;51.090;-1.786;2023-07-20T00:48:09;5.47;;;2.10;;
53261;SDS011;39658;51.090;-1.786;2023-07-20T00:50:37;8.25;;;2.00;;
53261;SDS011;39658;51.090;-1.786;2023-07-20T00:53:06;6.18;;;2.40;;
53261;SDS011;39658;51.090;-1.786;2023-07-20T00:55:34;5.88;;;2.30;;
53261;SDS011;39658;51.090;-1.786;2023-07-20T00:58:01;4.97;;;2.13;;
53261;SDS011;39658;51.090;-1.786;2023-07-20T01:00:27;5.25;;;2.20;;
53261;SDS011;39658;51.090;-1.786;2023-07-20T01:02:56;7.72;;;2.67;;
53261;SDS011;39658;51.090;-1.786;2023-07-20T01:05:23;4.45;;;1.70;;
53261;SDS011;39658;51.090;-1.786;2023-07-20T01:07:58;6.38;;;2.20;;
53261;SDS011;39658;51.090;-1.786;2023-07-20T01:10:31;5.80;;;1.75;;
53261;SDS011;39658;51.090;-1.786;2023-07-20T01:13:03;8.85;;;2.17;;
53261;SDS011;39658;51.090;-1.786;2023-07-20T01:15:33;6.45;;;2.03;;
53261;SDS011;39658;51.090;-1.786;2023-07-20T01:18:01;4.97;;;2.17;;
53261;SDS011;39658;51.090;-1.786;2023-07-20T01:20:30;4.57;;;1.83;;
53261;SDS011;39658;51.090;-1.786;2023-07-20T01:23:01;5.07;;;2.20;;
53261;SDS011;39658;51.090;-1.786;2023-07-20T01:25:56;4.90;;;1.85;;
53261;SDS011;39658;51.090;-1.786;2023-07-20T01:31:40;5.10;;;2.10;;
53261;SDS011;39658;51.090;-1.786;2023-07-20T01:34:09;6.10;;;1.75;;
53261;SDS011;39658;51.090;-1.786;2023-07-20T01:36:42;7.10;;;2.50;;
53261;SDS011;39658;51.090;-1.786;2023-07-20T01:39:10;6.85;;;2.03;;
53261;SDS011;39658;51.090;-1.786;2023-07-20T01:41:37;6.10;;;2.03;;
53261;SDS011;39658;51.090;-1.786;2023-07-20T01:44:05;5.72;;;2.10;;
53261;SDS011;39658;51.090;-1.786;2023-07-20T01:46:32;5.93;;;2.25;;
53261;SDS011;39658;51.090;-1.786;2023-07-20T01:49:00;4.55;;;1.52;;
53261;SDS011;39658;51.090;-1.786;2023-07-20T01:51:26;5.10;;;1.65;;
53261;SDS011;39658;51.090;-1.786;2023-07-20T01:53:53;5.15;;;2.10;;
53261;SDS011;39658;51.090;-1.786;2023-07-20T01:56:20;6.18;;;1.58;;
53261;SDS011;39658;51.090;-1.786;2023-07-20T01:58:46;4.28;;;1.65;;
53261;SDS011;39658;51.090;-1.786;2023-07-20T02:01:13;7.38;;;2.58;;
53261;SDS011;39658;51.090;-1.786;2023-07-20T02:03:40;4.47;;;1.75;;
53261;SDS011;39658;51.090;-1.786;2023-07-20T02:06:08;6.03;;;1.95;;
53261;SDS011;39658;51.090;-1.786;2023-07-20T02:08:35;4.85;;;2.08;;
53261;SDS011;39658;51.090;-1.786;2023-07-20T02:11:01;5.63;;;1.80;;
53261;SDS011;39658;51.090;-1.786;2023-07-20T02:13:29;5.43;;;2.08;;
53261;SDS011;39658;51.090;-1.786;2023-07-20T02:15:56;5.75;;;1.90;;
53261;SDS011;39658;51.090;-1.786;2023-07-20T02:18:23;4.38;;;1.85;;
53261;SDS011;39658;51.090;-1.786;2023-07-20T02:20:49;5.13;;;2.15;;
53261;SDS011;39658;51.090;-1.786;2023-07-20T02:23:20;5.75;;;2.28;;
53261;SDS011;39658;51.090;-1.786;2023-07-20T02:25:47;6.22;;;2.50;;
53261;SDS011;39658;51.090;-1.786;2023-07-20T02:28:14;4.78;;;1.95;;
53261;SDS011;39658;51.090;-1.786;2023-07-20T02:30:41;5.68;;;1.90;;
53261;SDS011;39658;51.090;-1.786;2023-07-20T02:33:08;4.40;;;2.15;;
53261;SDS011;39658;51.090;-1.786;2023-07-20T02:35:34;4.55;;;1.65;;
53261;SDS011;39658;51.090;-1.786;2023-07-20T02:38:01;4.07;;;2.05;;
53261;SDS011;39658;51.090;-1.786;2023-07-20T02:40:29;5.05;;;1.92;;
53261;SDS011;39658;51.090;-1.786;2023-07-20T02:42:56;4.30;;;1.75;;
53261;SDS011;39658;51.090;-1.786;2023-07-20T02:45:23;5.78;;;1.70;;
53261;SDS011;39658;51.090;-1.786;2023-07-20T02:47:50;4.72;;;1.88;;
53261;SDS011;39658;51.090;-1.786;2023-07-20T02:50:16;6.97;;;1.90;;
53261;SDS011;39658;51.090;-1.786;2023-07-20T02:52:43;5.28;;;2.15;;
53261;SDS011;39658;51.090;-1.786;2023-07-20T02:55:10;5.43;;;1.83;;
53261;SDS011;39658;51.090;-1.786;2023-07-20T02:57:38;5.90;;;2.00;;
53261;SDS011;39658;51.090;-1.786;2023-07-20T03:00:05;4.88;;;1.63;;
53261;SDS011;39658;51.090;-1.786;2023-07-20T03:02:33;4.65;;;1.80;;
53261;SDS011;39658;51.090;-1.786;2023-07-20T03:05:00;5.78;;;1.95;;
53261;SDS011;39658;51.090;-1.786;2023-07-20T03:07:30;5.28;;;2.05;;
53261;SDS011;39658;51.090;-1.786;2023-07-20T03:09:57;5.13;;;2.10;;
53261;SDS011;39658;51.090;-1.786;2023-07-20T03:12:24;4.88;;;1.63;;
53261;SDS011;39658;51.090;-1.786;2023-07-20T03:14:52;4.60;;;1.67;;
53261;SDS011;39658;51.090;-1.786;2023-07-20T03:17:19;4.90;;;2.15;;
53261;SDS011;39658;51.090;-1.786;2023-07-20T03:19:46;4.10;;;1.80;;
53261;SDS011;39658;51.090;-1.786;2023-07-20T03:22:13;7.25;;;1.77;;
53261;SDS011;39658;51.090;-1.786;2023-07-20T03:24:39;8.80;;;2.75;;
53261;SDS011;39658;51.090;-1.786;2023-07-20T03:27:06;4.20;;;1.75;;
53261;SDS011;39658;51.090;-1.786;2023-07-20T03:29:33;5.25;;;2.20;;
53261;SDS011;39658;51.090;-1.786;2023-07-20T03:32:01;4.38;;;1.83;;
53261;SDS011;39658;51.090;-1.786;2023-07-20T03:34:28;5.25;;;1.80;;
53261;SDS011;39658;51.090;-1.786;2023-07-20T03:36:54;5.35;;;1.92;;
53261;SDS011;39658;51.090;-1.786;2023-07-20T03:39:22;5.55;;;1.77;;
53261;SDS011;39658;51.090;-1.786;2023-07-20T03:41:48;7.45;;;1.70;;
53261;SDS011;39658;51.090;-1.786;2023-07-20T03:44:15;6.10;;;1.95;;
53261;SDS011;39658;51.090;-1.786;2023-07-20T03:46:42;5.55;;;1.95;;
53261;SDS011;39658;51.090;-1.786;2023-07-20T03:49:10;7.55;;;2.30;;
53261;SDS011;39658;51.090;-1.786;2023-07-20T03:51:37;5.20;;;1.50;;
53261;SDS011;39658;51.090;-1.786;2023-07-20T03:54:03;4.85;;;2.13;;
53261;SDS011;39658;51.090;-1.786;2023-07-20T03:56:30;4.13;;;1.67;;
53261;SDS011;39658;51.090;-1.786;2023-07-20T03:59:00;8.13;;;2.38;;
53261;SDS011;39658;51.090;-1.786;2023-07-20T04:01:27;6.75;;;2.50;;
53261;SDS011;39658;51.090;-1.786;2023-07-20T04:03:53;4.10;;;1.35;;
53261;SDS011;39658;51.090;-1.786;2023-07-20T04:06:22;5.15;;;2.38;;
53261;SDS011;39658;51.090;-1.786;2023-07-20T04:08:48;4.70;;;1.67;;
53261;SDS011;39658;51.090;-1.786;2023-07-20T04:11:15;4.47;;;1.70;;
53261;SDS011;39658;51.090;-1.786;2023-07-20T04:13:42;4.70;;;1.75;;
53261;SDS011;39658;51.090;-1.786;2023-07-20T04:16:08;3.63;;;1.40;;
53261;SDS011;39658;51.090;-1.786;2023-07-20T04:18:35;3.85;;;1.52;;
53261;SDS011;39658;51.090;-1.786;2023-07-20T04:21:02;5.50;;;1.92;;
53261;SDS011;39658;51.090;-1.786;2023-07-20T04:23:30;4.00;;;1.80;;
53261;SDS011;39658;51.090;-1.786;2023-07-20T04:25:57;7.47;;;1.83;;
53261;SDS011;39658;51.090;-1.786;2023-07-20T04:28:23;6.93;;;1.60;;
53261;SDS011;39658;51.090;-1.786;2023-07-20T04:30:50;5.03;;;1.70;;
53261;SDS011;39658;51.090;-1.786;2023-07-20T04:33:17;3.88;;;1.20;;
53261;SDS011;39658;51.090;-1.786;2023-07-20T04:35:46;5.22;;;1.90;;
53261;SDS011;39658;51.090;-1.786;2023-07-20T04:38:15;4.85;;;1.80;;
53261;SDS011;39658;51.090;-1.786;2023-07-20T04:40:44;4.32;;;1.75;;
53261;SDS011;39658;51.090;-1.786;2023-07-20T04:43:11;5.05;;;1.88;;
53261;SDS011;39658;51.090;-1.786;2023-07-20T04:45:38;4.80;;;1.85;;
53261;SDS011;39658;51.090;-1.786;2023-07-20T04:48:06;6.75;;;1.75;;
53261;SDS011;39658;51.090;-1.786;2023-07-20T04:53:01;3.97;;;1.73;;
53261;SDS011;39658;51.090;-1.786;2023-07-20T04:55:28;4.57;;;1.75;;
53261;SDS011;39658;51.090;-1.786;2023-07-20T04:57:56;5.55;;;1.80;;
53261;SDS011;39658;51.090;-1.786;2023-07-20T05:00:23;5.25;;;2.38;;
53261;SDS011;39658;51.090;-1.786;2023-07-20T05:02:50;6.57;;;2.28;;
53261;SDS011;39658;51.090;-1.786;2023-07-20T05:05:17;5.40;;;2.00;;
53261;SDS011;39658;51.090;-1.786;2023-07-20T05:07:44;10.43;;;2.60;;
53261;SDS011;39658;51.090;-1.786;2023-07-20T05:10:10;4.30;;;1.70;;
53261;SDS011;39658;51.090;-1.786;2023-07-20T05:12:37;6.97;;;2.58;;
53261;SDS011;39658;51.090;-1.786;2023-07-20T05:15:06;5.45;;;1.90;;
53261;SDS011;39658;51.090;-1.786;2023-07-20T05:17:33;5.47;;;2.20;;
53261;SDS011;39658;51.090;-1.786;2023-07-20T05:20:00;5.18;;;1.98;;
53261;SDS011;39658;51.090;-1.786;2023-07-20T05:22:26;4.63;;;1.80;;
53261;SDS011;39658;51.090;-1.786;2023-07-20T05:24:53;4.72;;;1.73;;
53261;SDS011;39658;51.090;-1.786;2023-07-20T05:27:20;4.35;;;1.67;;
53261;SDS011;39658;51.090;-1.786;2023-07-20T05:29:47;7.15;;;2.30;;
53261;SDS011;39658;51.090;-1.786;2023-07-20T05:32:15;6.70;;;2.58;;
53261;SDS011;39658;51.090;-1.786;2023-07-20T05:34:41;5.43;;;1.90;;
53261;SDS011;39658;51.090;-1.786;2023-07-20T05:37:08;4.63;;;2.28;;
53261;SDS011;39658;51.090;-1.786;2023-07-20T05:39:35;5.30;;;2.15;;
53261;SDS011;39658;51.090;-1.786;2023-07-20T05:42:01;6.18;;;2.35;;
53261;SDS011;39658;51.090;-1.786;2023-07-20T05:44:29;4.93;;;2.08;;
53261;SDS011;39658;51.090;-1.786;2023-07-20T05:46:55;5.57;;;2.28;;
53261;SDS011;39658;51.090;-1.786;2023-07-20T05:49:23;4.45;;;1.95;;
53261;SDS011;39658;51.090;-1.786;2023-07-20T05:51:50;5.10;;;2.05;;
53261;SDS011;39658;51.090;-1.786;2023-07-20T05:54:18;5.18;;;2.40;;
53261;SDS011;39658;51.090;-1.786;2023-07-20T05:56:45;7.13;;;2.28;;
53261;SDS011;39658;51.090;-1.786;2023-07-20T05:59:12;4.03;;;1.65;;
53261;SDS011;39658;51.090;-1.786;2023-07-20T06:01:39;4.75;;;2.00;;
53261;SDS011;39658;51.090;-1.786;2023-07-20T06:04:06;4.93;;;1.73;;
53261;SDS011;39658;51.090;-1.786;2023-07-20T06:06:34;5.00;;;1.92;;
53261;SDS011;39658;51.090;-1.786;2023-07-20T06:09:01;4.80;;;1.85;;
53261;SDS011;39658;51.090;-1.786;2023-07-20T06:11:30;5.10;;;2.20;;
53261;SDS011;39658;51.090;-1.786;2023-07-20T06:13:57;4.00;;;1.75;;
53261;SDS011;39658;51.090;-1.786;2023-07-20T06:16:23;5.43;;;2.30;;
53261;SDS011;39658;51.090;-1.786;2023-07-20T06:18:50;5.95;;;2.05;;
53261;SDS011;39658;51.090;-1.786;2023-07-20T06:21:17;4.43;;;1.63;;
53261;SDS011;39658;51.090;-1.786;2023-07-20T06:23:45;4.88;;;1.67;;
53261;SDS011;39658;51.090;-1.786;2023-07-20T06:26:12;3.92;;;1.38;;
53261;SDS011;39658;51.090;-1.786;2023-07-20T06:28:39;4.38;;;1.65;;
53261;SDS011;39658;51.090;-1.786;2023-07-20T06:31:06;4.10;;;1.23;;
53261;SDS011;39658;51.090;-1.786;2023-07-20T06:33:32;3.78;;;1.58;;
53261;SDS011;39658;51.090;-1.786;2023-07-20T06:35:59;4.03;;;1.33;;
53261;SDS011;39658;51.090;-1.786;2023-07-20T06:38:26;4.53;;;1.60;;
53261;SDS011;39658;51.090;-1.786;2023-07-20T06:40:54;4.30;;;1.55;;
53261;SDS011;39658;51.090;-1.786;2023-07-20T06:43:21;4.93;;;1.73;;
53261;SDS011;39658;51.090;-1.786;2023-07-20T06:45:50;8.00;;;1.92;;
53261;SDS011;39658;51.090;-1.786;2023-07-20T06:48:18;4.70;;;1.77;;
53261;SDS011;39658;51.090;-1.786;2023-07-20T06:50:45;3.88;;;1.40;;
53261;SDS011;39658;51.090;-1.786;2023-07-20T06:53:12;4.30;;;1.52;;
53261;SDS011;39658;51.090;-1.786;2023-07-20T06:55:39;2.85;;;1.17;;
53261;SDS011;39658;51.090;-1.786;2023-07-20T06:58:09;6.88;;;1.52;;
53261;SDS011;39658;51.090;-1.786;2023-07-20T07:00:36;4.47;;;1.63;;
53261;SDS011;39658;51.090;-1.786;2023-07-20T07:03:03;2.78;;;1.15;;
53261;SDS011;39658;51.090;-1.786;2023-07-20T07:05:29;6.18;;;1.67;;
53261;SDS011;39658;51.090;-1.786;2023-07-20T07:07:56;4.50;;;1.60;;
53261;SDS011;39658;51.090;-1.786;2023-07-20T07:10:23;5.65;;;1.58;;
53261;SDS011;39658;51.090;-1.786;2023-07-20T07:12:50;5.13;;;1.83;;
53261;SDS011;39658;51.090;-1.786;2023-07-20T07:15:18;4.22;;;1.75;;
53261;SDS011;39658;51.090;-1.786;2023-07-20T07:17:44;4.10;;;1.65;;
53261;SDS011;39658;51.090;-1.786;2023-07-20T07:20:11;3.80;;;1.75;;
53261;SDS011;39658;51.090;-1.786;2023-07-20T07:22:38;3.95;;;1.65;;
53261;SDS011;39658;51.090;-1.786;2023-07-20T07:25:09;4.80;;;1.88;;
53261;SDS011;39658;51.090;-1.786;2023-07-20T07:27:36;5.47;;;1.55;;
53261;SDS011;39658;51.090;-1.786;2023-07-20T07:30:03;6.38;;;1.65;;
53261;SDS011;39658;51.090;-1.786;2023-07-20T07:32:32;4.07;;;1.80;;
53261;SDS011;39658;51.090;-1.786;2023-07-20T07:34:59;3.80;;;1.25;;
53261;SDS011;39658;51.090;-1.786;2023-07-20T07:37:26;3.67;;;1.23;;
53261;SDS011;39658;51.090;-1.786;2023-07-20T07:39:53;4.50;;;1.92;;
53261;SDS011;39658;51.090;-1.786;2023-07-20T07:42:20;3.38;;;1.23;;
53261;SDS011;39658;51.090;-1.786;2023-07-20T07:44:47;3.97;;;1.45;;
53261;SDS011;39658;51.090;-1.786;2023-07-20T07:47:13;4.40;;;1.52;;
53261;SDS011;39658;51.090;-1.786;2023-07-20T07:49:42;4.05;;;1.50;;
53261;SDS011;39658;51.090;-1.786;2023-07-20T07:52:09;4.40;;;1.48;;
53261;SDS011;39658;51.090;-1.786;2023-07-20T07:54:36;5.55;;;1.77;;
53261;SDS011;39658;51.090;-1.786;2023-07-20T07:57:02;3.55;;;1.48;;
53261;SDS011;39658;51.090;-1.786;2023-07-20T07:59:29;3.47;;;1.17;;
53261;SDS011;39658;51.090;-1.786;2023-07-20T08:02:01;4.00;;;1.40;;
53261;SDS011;39658;51.090;-1.786;2023-07-20T08:04:28;5.35;;;1.27;;
53261;SDS011;39658;51.090;-1.786;2023-07-20T08:06:57;3.90;;;1.50;;
53261;SDS011;39658;51.090;-1.786;2023-07-20T08:11:52;3.75;;;1.38;;
53261;SDS011;39658;51.090;-1.786;2023-07-20T08:14:18;4.78;;;1.20;;
53261;SDS011;39658;51.090;-1.786;2023-07-20T08:16:45;3.95;;;1.55;;
53261;SDS011;39658;51.090;-1.786;2023-07-20T08:19:12;4.20;;;1.63;;
53261;SDS011;39658;51.090;-1.786;2023-07-20T08:21:40;4.35;;;1.38;;
53261;SDS011;39658;51.090;-1.786;2023-07-20T08:24:08;4.95;;;1.25;;
53261;SDS011;39658;51.090;-1.786;2023-07-20T08:26:35;3.40;;;1.13;;
53261;SDS011;39658;51.090;-1.786;2023-07-20T08:29:01;3.83;;;1.55;;
53261;SDS011;39658;51.090;-1.786;2023-07-20T08:31:28;3.90;;;1.50;;
53261;SDS011;39658;51.090;-1.786;2023-07-20T08:33:55;4.50;;;1.23;;
53261;SDS011;39658;51.090;-1.786;2023-07-20T08:36:22;3.85;;;1.40;;
53261;SDS011;39658;51.090;-1.786;2023-07-20T08:38:49;4.28;;;1.30;;
53261;SDS011;39658;51.090;-1.786;2023-07-20T08:41:17;3.13;;;1.30;;
53261;SDS011;39658;51.090;-1.786;2023-07-20T08:43:45;4.18;;;1.45;;
53261;SDS011;39658;51.090;-1.786;2023-07-20T08:46:13;2.30;;;1.02;;
53261;SDS011;39658;51.090;-1.786;2023-07-20T08:48:41;4.43;;;1.35;;
53261;SDS011;39658;51.090;-1.786;2023-07-20T08:51:09;4.05;;;1.40;;
53261;SDS011;39658;51.090;-1.786;2023-07-20T08:53:38;4.18;;;1.20;;
53261;SDS011;39658;51.090;-1.786;2023-07-20T08:56:05;3.80;;;1.30;;
53261;SDS011;39658;51.090;-1.786;2023-07-20T08:58:34;3.40;;;1.42;;
53261;SDS011;39658;51.090;-1.786;2023-07-20T09:01:02;2.40;;;0.90;;
53261;SDS011;39658;51.090;-1.786;2023-07-20T09:03:29;2.78;;;1.15;;
53261;SDS011;39658;51.090;-1.786;2023-07-20T09:05:56;5.32;;;1.30;;
53261;SDS011;39658;51.090;-1.786;2023-07-20T09:08:23;6.43;;;1.35;;
53261;SDS011;39658;51.090;-1.786;2023-07-20T09:10:50;6.13;;;1.10;;
53261;SDS011;39658;51.090;-1.786;2023-07-20T09:13:17;2.03;;;0.80;;
53261;SDS011;39658;51.090;-1.786;2023-07-20T09:15:49;4.88;;;1.08;;
53261;SDS011;39658;51.090;-1.786;2023-07-20T09:18:23;4.68;;;1.15;;
53261;SDS011;39658;51.090;-1.786;2023-07-20T09:20:50;2.85;;;0.90;;
53261;SDS011;39658;51.090;-1.786;2023-07-20T09:23:17;2.38;;;0.98;;
53261;SDS011;39658;51.090;-1.786;2023-07-20T09:25:44;4.75;;;1.10;;
53261;SDS011;39658;51.090;-1.786;2023-07-20T09:28:11;2.88;;;0.93;;
53261;SDS011;39658;51.090;-1.786;2023-07-20T09:30:37;2.67;;;0.98;;
53261;SDS011;39658;51.090;-1.786;2023-07-20T09:33:06;2.70;;;0.80;;
53261;SDS011;39658;51.090;-1.786;2023-07-20T09:35:45;5.07;;;0.85;;
53261;SDS011;39658;51.090;-1.786;2023-07-20T09:38:12;3.80;;;0.98;;
53261;SDS011;39658;51.090;-1.786;2023-07-20T09:40:41;2.80;;;0.80;;
53261;SDS011;39658;51.090;-1.786;2023-07-20T09:43:08;2.67;;;1.10;;
53261;SDS011;39658;51.090;-1.786;2023-07-20T09:45:34;4.03;;;1.08;;
53261;SDS011;39658;51.090;-1.786;2023-07-20T09:48:07;2.97;;;1.08;;
53261;SDS011;39658;51.090;-1.786;2023-07-20T09:50:39;2.72;;;0.80;;
53261;SDS011;39658;51.090;-1.786;2023-07-20T09:53:07;2.70;;;1.08;;
53261;SDS011;39658;51.090;-1.786;2023-07-20T09:55:38;2.10;;;0.77;;
53261;SDS011;39658;51.090;-1.786;2023-07-20T09:58:06;3.50;;;1.15;;
53261;SDS011;39658;51.090;-1.786;2023-07-20T10:00:35;4.35;;;1.08;;
53261;SDS011;39658;51.090;-1.786;2023-07-20T10:03:03;3.08;;;0.98;;
53261;SDS011;39658;51.090;-1.786;2023-07-20T10:05:33;3.08;;;1.10;;
53261;SDS011;39658;51.090;-1.786;2023-07-20T10:08:02;3.00;;;1.00;;
53261;SDS011;39658;51.090;-1.786;2023-07-20T10:10:31;3.90;;;1.27;;
53261;SDS011;39658;51.090;-1.786;2023-07-20T10:13:00;2.80;;;0.93;;
53261;SDS011;39658;51.090;-1.786;2023-07-20T10:15:29;3.00;;;0.98;;
53261;SDS011;39658;51.090;-1.786;2023-07-20T10:18:02;2.72;;;0.90;;
53261;SDS011;39658;51.090;-1.786;2023-07-20T10:20:34;5.03;;;0.95;;
53261;SDS011;39658;51.090;-1.786;2023-07-20T10:23:03;2.40;;;0.80;;
53261;SDS011;39658;51.090;-1.786;2023-07-20T10:25:30;3.83;;;0.98;;
53261;SDS011;39658;51.090;-1.786;2023-07-20T10:27:58;2.80;;;0.95;;
53261;SDS011;39658;51.090;-1.786;2023-07-20T10:30:26;3.13;;;1.13;;
53261;SDS011;39658;51.090;-1.786;2023-07-20T10:32:53;4.30;;;1.02;;
53261;SDS011;39658;51.090;-1.786;2023-07-20T10:35:20;1.92;;;0.77;;
53261;SDS011;39658;51.090;-1.786;2023-07-20T10:37:52;2.95;;;0.90;;
53261;SDS011;39658;51.090;-1.786;2023-07-20T10:40:29;2.38;;;0.85;;
53261;SDS011;39658;51.090;-1.786;2023-07-20T10:42:58;2.63;;;1.05;;
53261;SDS011;39658;51.090;-1.786;2023-07-20T10:48:16;3.95;;;1.20;;
53261;SDS011;39658;51.090;-1.786;2023-07-20T10:50:44;3.00;;;1.00;;
53261;SDS011;39658;51.090;-1.786;2023-07-20T10:53:14;5.68;;;1.08;;
53261;SDS011;39658;51.090;-1.786;2023-07-20T10:55:43;3.78;;;1.20;;
53261;SDS011;39658;51.090;-1.786;2023-07-20T10:58:11;2.60;;;1.02;;
53261;SDS011;39658;51.090;-1.786;2023-07-20T11:03:27;3.20;;;1.02;;
53261;SDS011;39658;51.090;-1.786;2023-07-20T11:05:58;2.75;;;0.85;;
53261;SDS011;39658;51.090;-1.786;2023-07-20T11:08:39;2.53;;;0.90;;
53261;SDS011;39658;51.090;-1.786;2023-07-20T11:11:23;3.00;;;0.88;;
53261;SDS011;39658;51.090;-1.786;2023-07-20T11:13:55;2.92;;;1.08;;
53261;SDS011;39658;51.090;-1.786;2023-07-20T11:16:33;2.40;;;0.90;;
53261;SDS011;39658;51.090;-1.786;2023-07-20T11:19:01;1.73;;;0.77;;
53261;SDS011;39658;51.090;-1.786;2023-07-20T11:21:28;3.25;;;1.00;;
53261;SDS011;39658;51.090;-1.786;2023-07-20T11:23:57;4.85;;;1.05;;
53261;SDS011;39658;51.090;-1.786;2023-07-20T11:26:23;1.92;;;0.60;;
53261;SDS011;39658;51.090;-1.786;2023-07-20T11:28:50;4.28;;;0.90;;
53261;SDS011;39658;51.090;-1.786;2023-07-20T11:31:18;4.63;;;1.15;;
53261;SDS011;39658;51.090;-1.786;2023-07-20T11:33:45;5.68;;;1.00;;
53261;SDS011;39658;51.090;-1.786;2023-07-20T11:36:12;2.83;;;1.13;;
53261;SDS011;39658;51.090;-1.786;2023-07-20T11:38:40;3.85;;;0.95;;
53261;SDS011;39658;51.090;-1.786;2023-07-20T11:41:10;4.82;;;1.00;;
53261;SDS011;39658;51.090;-1.786;2023-07-20T11:43:37;2.75;;;0.98;;
53261;SDS011;39658;51.090;-1.786;2023-07-20T11:46:05;2.35;;;0.85;;
53261;SDS011;39658;51.090;-1.786;2023-07-20T11:48:32;2.60;;;0.88;;
53261;SDS011;39658;51.090;-1.786;2023-07-20T11:50:59;2.42;;;0.80;;
53261;SDS011;39658;51.090;-1.786;2023-07-20T11:53:26;5.30;;;0.90;;
53261;SDS011;39658;51.090;-1.786;2023-07-20T11:55:53;2.65;;;0.90;;
53261;SDS011;39658;51.090;-1.786;2023-07-20T11:58:21;3.33;;;0.90;;
53261;SDS011;39658;51.090;-1.786;2023-07-20T12:00:48;3.00;;;1.00;;
53261;SDS011;39658;51.090;-1.786;2023-07-20T12:03:15;2.63;;;1.08;;
53261;SDS011;39658;51.090;-1.786;2023-07-20T12:05:42;3.33;;;1.02;;
53261;SDS011;39658;51.090;-1.786;2023-07-20T12:08:09;2.67;;;0.70;;
53261;SDS011;39658;51.090;-1.786;2023-07-20T12:10:38;3.47;;;1.20;;
53261;SDS011;39658;51.090;-1.786;2023-07-20T12:13:09;3.70;;;0.70;;
53261;SDS011;39658;51.090;-1.786;2023-07-20T12:15:38;2.63;;;0.85;;
53261;SDS011;39658;51.090;-1.786;2023-07-20T12:18:04;4.47;;;1.00;;
53261;SDS011;39658;51.090;-1.786;2023-07-20T12:20:32;3.58;;;1.13;;
53261;SDS011;39658;51.090;-1.786;2023-07-20T12:23:01;1.73;;;0.82;;
53261;SDS011;39658;51.090;-1.786;2023-07-20T12:25:33;4.85;;;1.02;;
53261;SDS011;39658;51.090;-1.786;2023-07-20T12:28:04;3.85;;;0.80;;
53261;SDS011;39658;51.090;-1.786;2023-07-20T12:30:31;3.15;;;1.13;;
53261;SDS011;39658;51.090;-1.786;2023-07-20T12:32:59;3.05;;;1.00;;
53261;SDS011;39658;51.090;-1.786;2023-07-20T12:35:26;3.42;;;1.10;;
53261;SDS011;39658;51.090;-1.786;2023-07-20T12:37:53;2.83;;;0.93;;
53261;SDS011;39658;51.090;-1.786;2023-07-20T12:40:20;4.70;;;1.33;;
53261;SDS011;39658;51.090;-1.786;2023-07-20T12:42:47;2.63;;;1.10;;
53261;SDS011;39658;51.090;-1.786;2023-07-20T12:45:14;3.22;;;0.98;;
53261;SDS011;39658;51.090;-1.786;2023-07-20T12:47:41;2.72;;;1.00;;
53261;SDS011;39658;51.090;-1.786;2023-07-20T12:50:10;1.88;;;0.70;;
53261;SDS011;39658;51.090;-1.786;2023-07-20T12:52:37;3.95;;;0.77;;
53261;SDS011;39658;51.090;-1.786;2023-07-20T12:55:05;4.18;;;0.90;;
53261;SDS011;39658;51.090;-1.786;2023-07-20T12:57:34;2.85;;;1.10;;
53261;SDS011;39658;51.090;-1.786;2023-07-20T13:00:01;3.17;;;1.27;;
53261;SDS011;39658;51.090;-1.786;2023-07-20T13:02:29;3.45;;;1.05;;
53261;SDS011;39658;51.090;-1.786;2023-07-20T13:04:57;2.95;;;1.13;;
53261;SDS011;39658;51.090;-1.786;2023-07-20T13:07:30;2.53;;;1.00;;
53261;SDS011;39658;51.090;-1.786;2023-07-20T13:09:58;3.83;;;0.85;;
53261;SDS011;39658;51.090;-1.786;2023-07-20T13:12:25;2.00;;;0.77;;
53261;SDS011;39658;51.090;-1.786;2023-07-20T13:14:53;2.22;;;0.98;;
53261;SDS011;39658;51.090;-1.786;2023-07-20T13:17:21;3.95;;;1.13;;
53261;SDS011;39658;51.090;-1.786;2023-07-20T13:19:48;3.33;;;1.08;;
53261;SDS011;39658;51.090;-1.786;2023-07-20T13:22:15;2.58;;;0.80;;
53261;SDS011;39658;51.090;-1.786;2023-07-20T13:24:43;3.45;;;0.90;;
53261;SDS011;39658;51.090;-1.786;2023-07-20T13:27:11;2.90;;;0.90;;
53261;SDS011;39658;51.090;-1.786;2023-07-20T13:29:38;1.73;;;0.63;;
53261;SDS011;39658;51.090;-1.786;2023-07-20T13:32:05;2.75;;;0.73;;
53261;SDS011;39658;51.090;-1.786;2023-07-20T13:34:33;4.40;;;1.00;;
53261;SDS011;39658;51.090;-1.786;2023-07-20T13:37:00;3.88;;;0.98;;
53261;SDS011;39658;51.090;-1.786;2023-07-20T13:39:27;2.67;;;1.02;;
53261;SDS011;39658;51.090;-1.786;2023-07-20T13:41:55;3.35;;;0.90;;
53261;SDS011;39658;51.090;-1.786;2023-07-20T13:44:22;3.00;;;0.93;;
53261;SDS011;39658;51.090;-1.786;2023-07-20T13:46:49;2.65;;;1.05;;
53261;SDS011;39658;51.090;-1.786;2023-07-20T13:49:16;3.83;;;1.00;;
53261;SDS011;39658;51.090;-1.786;2023-07-20T13:51:43;3.17;;;0.93;;
53261;SDS011;39658;51.090;-1.786;2023-07-20T13:54:09;3.42;;;1.00;;
53261;SDS011;39658;51.090;-1.786;2023-07-20T13:56:36;4.28;;;1.10;;
53261;SDS011;39658;51.090;-1.786;2023-07-20T13:59:05;8.75;;;1.05;;
53261;SDS011;39658;51.090;-1.786;2023-07-20T14:01:31;2.83;;;1.00;;
53261;SDS011;39658;51.090;-1.786;2023-07-20T14:03:59;2.72;;;0.85;;
53261;SDS011;39658;51.090;-1.786;2023-07-20T14:06:29;5.32;;;1.25;;
53261;SDS011;39658;51.090;-1.786;2023-07-20T14:08:56;3.58;;;1.20;;
53261;SDS011;39658;51.090;-1.786;2023-07-20T14:11:23;4.53;;;0.80;;
53261;SDS011;39658;51.090;-1.786;2023-07-20T14:13:50;2.35;;;0.88;;
53261;SDS011;39658;51.090;-1.786;2023-07-20T14:16:19;2.78;;;1.13;;
53261;SDS011;39658;51.090;-1.786;2023-07-20T14:18:46;2.70;;;0.90;;
53261;SDS011;39658;51.090;-1.786;2023-07-20T14:21:14;3.53;;;1.00;;
53261;SDS011;39658;51.090;-1.786;2023-07-20T14:23:40;3.25;;;1.00;;
53261;SDS011;39658;51.090;-1.786;2023-07-20T14:26:07;3.20;;;1.00;;
53261;SDS011;39658;51.090;-1.786;2023-07-20T14:28:34;2.83;;;0.75;;
53261;SDS011;39658;51.090;-1.786;2023-07-20T14:31:01;5.05;;;0.85;;
53261;SDS011;39658;51.090;-1.786;2023-07-20T14:33:29;2.53;;;0.70;;
53261;SDS011;39658;51.090;-1.786;2023-07-20T14:35:56;5.47;;;0.90;;
53261;SDS011;39658;51.090;-1.786;2023-07-20T14:38:23;3.35;;;1.02;;
53261;SDS011;39658;51.090;-1.786;2023-07-20T14:40:50;3.35;;;0.88;;
53261;SDS011;39658;51.090;-1.786;2023-07-20T14:43:17;2.45;;;0.85;;
53261;SDS011;39658;51.090;-1.786;2023-07-20T14:45:43;2.60;;;0.88;;
53261;SDS011;39658;51.090;-1.786;2023-07-20T14:48:11;2.83;;;1.08;;
53261;SDS011;39658;51.090;-1.786;2023-07-20T14:50:39;4.40;;;1.20;;